Current | Forecast
Updated: 8:20 AM EEST on August 23, 2017
Observed at Rhodes, Greece
Temperature 25°C
Humidity 74%
Dew Point 20°C
Wind WNW at 18 km/h
Pressure 1009 hPa (Steady)
Conditions Partly Cloudy
Visibility 10.0 kilometers
UV 2 out of 16
Clouds (FEW) : 304 m
Yesterday's Maximum 30°C
Yesterday's Minimum 24°C approx.
Yesterday's Cooling Degree Days 16 approx.
Sunrise6:31 AM EEST
Sunset7:47 PM EEST
Moon Rise8:03 AM EEST
Moon Set8:59 PM EEST
Moon PhaseMoon Phase
Waxing Crescent
Raw METARMETAR LGRP 230520Z 30010KT 9999 FEW010 25/20 Q1009 NOSIG


Monday
. High: 73° F.
Tuesday
. High: 78° F.
Wednesday
. High: 77° F.
Thursday
. High: 84° F.
Friday
. High: 82° F.
Saturday
. High: 80° F.
Sunday
. High: 77° F.
Monday
. High: 75° F.

Units: English | Metric

Find the Weather for any City, State or Zipcode, or Country:

U.S. State List | Severe Weather | Tropical Storms | Ski Conditions
United States | Canada | Central America | South America | Asia | Europe | Australia | Africa | Islands

Weather Underground

© Copyright 2017
The Weather Company, LLC